Time;durP1;ratioP1;P1;durP2;ratioP2;P2;SDS_P1;SDS_P2;PMS_P1;PMS_P2;Temp;Humidity;BMP_temperature;BMP_pressure;BME280_temperature;BME280_humidity;BME280_pressure;Samples;Min_cycle;Max_cycle;Signal;HPM_P1;HPM_P2
2023/11/18 00:00:11;;;;;;;4.97;3.00;;;;;;;;;;6254787;22;20004;-95
2023/11/18 00:02:38;;;;;;;6.07;3.50;;;;;;;;;;6253528;22;20432;-96
2023/11/18 00:05:07;;;;;;;4.53;3.30;;;;;;;;;;6253306;22;20007;-95
2023/11/18 00:07:33;;;;;;;4.15;3.30;;;;;;;;;;6252636;22;20082;-95
2023/11/18 00:09:59;;;;;;;5.03;3.08;;;;;;;;;;6252725;22;20007;-96
2023/11/18 00:12:30;;;;;;;4.22;2.92;;;;;;;;;;6280283;22;20079;-96
2023/11/18 00:14:56;;;;;;;4.82;3.30;;;;;;;;;;6253659;22;20007;-96
2023/11/18 00:17:22;;;;;;;6.18;3.10;;;;;;;;;;6253532;22;20024;-96
2023/11/18 00:19:49;;;;;;;4.18;3.03;;;;;;;;;;6253426;22;20035;-96
2023/11/18 00:22:15;;;;;;;4.72;2.90;;;;;;;;;;6253742;22;20000;-96
2023/11/18 00:24:43;;;;;;;5.43;3.05;;;;;;;;;;6280344;22;20071;-95
2023/11/18 00:27:10;;;;;;;5.00;2.88;;;;;;;;;;6253555;22;19999;-92
2023/11/18 00:29:37;;;;;;;4.40;2.80;;;;;;;;;;6253629;22;20012;-96
2023/11/18 00:32:04;;;;;;;4.03;2.83;;;;;;;;;;6253908;22;20091;-96
2023/11/18 00:34:31;;;;;;;5.05;3.10;;;;;;;;;;6252674;22;20004;-96
2023/11/18 00:36:57;;;;;;;4.68;3.10;;;;;;;;;;6252587;22;20008;-96
2023/11/18 00:39:24;;;;;;;7.95;3.78;;;;;;;;;;6281779;22;20071;-96
2023/11/18 00:41:51;;;;;;;4.15;3.00;;;;;;;;;;6254379;22;20087;-96
2023/11/18 00:44:18;;;;;;;4.10;2.40;;;;;;;;;;6254486;22;20015;-96
2023/11/18 00:46:44;;;;;;;6.32;2.85;;;;;;;;;;6254773;22;20004;-96
2023/11/18 00:49:12;;;;;;;3.92;2.72;;;;;;;;;;6254302;22;20016;-96
2023/11/18 00:51:38;;;;;;;5.03;2.75;;;;;;;;;;6254190;22;20023;-95
2023/11/18 00:54:11;;;;;;;4.13;2.50;;;;;;;;;;6255216;22;20459;-96
2023/11/18 00:56:37;;;;;;;5.57;2.80;;;;;;;;;;6255470;22;20008;-94
2023/11/18 00:59:03;;;;;;;3.55;2.67;;;;;;;;;;6254795;22;20034;-95
2023/11/18 01:01:29;;;;;;;4.88;2.92;;;;;;;;;;6255208;22;20478;-96
2023/11/18 01:03:59;;;;;;;4.38;2.72;;;;;;;;;;6254673;22;20003;-96
2023/11/18 01:06:27;;;;;;;4.63;2.80;;;;;;;;;;6282133;22;20004;-96
2023/11/18 01:08:56;;;;;;;6.43;3.10;;;;;;;;;;6254850;22;20325;-95
2023/11/18 01:11:22;;;;;;;5.13;2.90;;;;;;;;;;6255507;22;20000;-95
2023/11/18 01:13:52;;;;;;;4.88;3.17;;;;;;;;;;6254717;22;20061;-95
2023/11/18 01:16:19;;;;;;;6.78;2.95;;;;;;;;;;6255209;22;20004;-96
2023/11/18 01:18:45;;;;;;;5.68;2.95;;;;;;;;;;6254444;22;20008;-96
2023/11/18 01:21:11;;;;;;;5.00;2.63;;;;;;;;;;6257117;22;20001;-95
2023/11/18 01:23:38;;;;;;;4.45;2.92;;;;;;;;;;6277226;22;20003;-95
2023/11/18 01:26:05;;;;;;;5.10;3.05;;;;;;;;;;6280086;22;19994;-93
2023/11/18 01:28:36;;;;;;;4.13;2.97;;;;;;;;;;6275109;22;20042;-95
2023/11/18 01:31:04;;;;;;;4.65;2.67;;;;;;;;;;6253700;22;20004;-95
2023/11/18 01:33:32;;;;;;;7.88;3.10;;;;;;;;;;6280838;22;20004;-96
2023/11/18 01:36:02;;;;;;;4.47;2.85;;;;;;;;;;6253584;22;20429;-96
2023/11/18 01:38:30;;;;;;;4.70;2.95;;;;;;;;;;6253654;22;20090;-96
2023/11/18 01:40:56;;;;;;;4.40;2.65;;;;;;;;;;6252954;22;20004;-96
2023/11/18 01:43:23;;;;;;;4.40;3.03;;;;;;;;;;6253434;22;20027;-95
2023/11/18 01:45:49;;;;;;;4.93;3.00;;;;;;;;;;6253931;22;20082;-96
2023/11/18 01:48:17;;;;;;;4.72;3.13;;;;;;;;;;6279867;22;20015;-95
2023/11/18 01:50:44;;;;;;;7.95;3.25;;;;;;;;;;6252869;22;20057;-94
2023/11/18 01:53:13;;;;;;;5.00;3.25;;;;;;;;;;6252653;22;20008;-95
2023/11/18 01:55:40;;;;;;;4.97;2.85;;;;;;;;;;6279676;22;20077;-96
2023/11/18 01:58:10;;;;;;;4.70;2.70;;;;;;;;;;6253194;22;20011;-93
2023/11/18 02:00:41;;;;;;;4.68;3.00;;;;;;;;;;6253294;22;19992;-95
2023/11/18 02:03:09;;;;;;;4.80;2.90;;;;;;;;;;6254156;22;20090;-95
2023/11/18 02:05:35;;;;;;;4.10;2.72;;;;;;;;;;6253796;22;20011;-95
2023/11/18 02:08:04;;;;;;;7.35;3.08;;;;;;;;;;6252621;22;20433;-96
2023/11/18 02:10:31;;;;;;;8.35;3.30;;;;;;;;;;6253463;22;20003;-96
2023/11/18 02:13:32;;;;;;;4.43;2.75;;;;;;;;;;6253018;22;20007;-94
2023/11/18 02:15:59;;;;;;;5.68;2.97;;;;;;;;;;6192022;23;20120;-93
2023/11/18 02:18:32;;;;;;;3.80;2.63;;;;;;;;;;6241133;22;20000;-96
2023/11/18 02:20:58;;;;;;;5.85;2.95;;;;;;;;;;6253507;22;20031;-93
2023/11/18 02:23:26;;;;;;;4.45;2.92;;;;;;;;;;6253260;22;20014;-95
2023/11/18 02:25:55;;;;;;;6.55;2.60;;;;;;;;;;6280114;22;20433;-95
2023/11/18 02:28:22;;;;;;;4.90;3.05;;;;;;;;;;6253182;22;20016;-95
2023/11/18 02:30:49;;;;;;;4.38;2.90;;;;;;;;;;6253067;22;20424;-95
2023/11/18 02:33:21;;;;;;;8.68;3.65;;;;;;;;;;6252961;22;20012;-96
2023/11/18 02:35:52;;;;;;;5.55;2.90;;;;;;;;;;6254871;22;20008;-96
2023/11/18 02:38:19;;;;;;;4.72;2.50;;;;;;;;;;6256362;22;20003;-95
2023/11/18 02:40:47;;;;;;;3.40;2.40;;;;;;;;;;6252909;22;20050;-96
2023/11/18 02:43:14;;;;;;;5.57;3.08;;;;;;;;;;6253099;22;20065;-95
2023/11/18 02:45:41;;;;;;;3.85;2.50;;;;;;;;;;6252971;22;20017;-96
2023/11/18 02:48:08;;;;;;;4.07;2.72;;;;;;;;;;6251869;22;20020;-95
2023/11/18 02:50:35;;;;;;;5.53;2.78;;;;;;;;;;6253178;22;20011;-94
2023/11/18 02:53:02;;;;;;;5.22;2.80;;;;;;;;;;6253091;22;20008;-96
2023/11/18 02:55:28;;;;;;;4.47;2.47;;;;;;;;;;6252899;22;20031;-94
2023/11/18 02:57:55;;;;;;;3.40;2.42;;;;;;;;;;6253289;22;20003;-95
2023/11/18 03:00:23;;;;;;;3.38;2.53;;;;;;;;;;6253169;22;20031;-95
2023/11/18 03:02:51;;;;;;;4.90;2.55;;;;;;;;;;6252528;22;20000;-95
2023/11/18 03:05:18;;;;;;;4.32;2.92;;;;;;;;;;6253140;22;20050;-95
2023/11/18 03:07:47;;;;;;;4.80;3.10;;;;;;;;;;6274015;22;20051;-95
2023/11/18 03:10:20;;;;;;;3.65;2.50;;;;;;;;;;6277235;22;20043;-95
2023/11/18 03:12:46;;;;;;;;;;;;;;;;;;6254424;22;20034;-95
2023/11/18 03:15:12;;;;;;;4.90;3.20;;;;;;;;;;6252480;22;19899;-95
2023/11/18 03:17:39;;;;;;;4.53;3.20;;;;;;;;;;6252037;22;19999;-95
2023/11/18 03:20:07;;;;;;;4.18;2.90;;;;;;;;;;6252349;22;20004;-93
2023/11/18 03:22:33;;;;;;;9.65;3.00;;;;;;;;;;6252781;22;20004;-96
2023/11/18 03:25:00;;;;;;;3.75;2.42;;;;;;;;;;6252673;22;20059;-95
2023/11/18 03:27:26;;;;;;;5.38;2.92;;;;;;;;;;6252403;22;20010;-94
2023/11/18 03:29:53;;;;;;;5.43;3.75;;;;;;;;;;6252495;22;20042;-94
2023/11/18 03:32:19;;;;;;;5.05;3.30;;;;;;;;;;6252429;22;20006;-96
2023/11/18 03:34:45;;;;;;;3.95;2.42;;;;;;;;;;6252354;22;20007;-95
2023/11/18 03:37:11;;;;;;;4.32;2.47;;;;;;;;;;6253386;22;20007;-95
2023/11/18 03:39:37;;;;;;;3.65;2.40;;;;;;;;;;6252279;22;20007;-96
2023/11/18 03:42:04;;;;;;;4.68;2.88;;;;;;;;;;6252684;22;20073;-92
2023/11/18 03:44:30;;;;;;;6.20;2.97;;;;;;;;;;6252588;22;20004;-94
2023/11/18 03:46:56;;;;;;;4.28;2.67;;;;;;;;;;6252544;22;20335;-93
2023/11/18 03:49:22;;;;;;;5.00;2.90;;;;;;;;;;6246390;23;20020;-95
2023/11/18 03:51:49;;;;;;;4.38;2.95;;;;;;;;;;6286485;22;20004;-92
2023/11/18 03:54:15;;;;;;;5.65;2.80;;;;;;;;;;6286742;22;20311;-96
2023/11/18 03:56:41;;;;;;;5.18;3.10;;;;;;;;;;6275275;22;20004;-95
2023/11/18 03:59:09;;;;;;;4.38;2.75;;;;;;;;;;6272423;22;20004;-93
2023/11/18 04:01:36;;;;;;;5.15;2.75;;;;;;;;;;6273223;22;20027;-96
2023/11/18 04:04:04;;;;;;;11.20;2.83;;;;;;;;;;6272894;22;20087;-95
2023/11/18 04:06:30;;;;;;;5.38;2.60;;;;;;;;;;6273256;22;20539;-95
2023/11/18 04:08:56;;;;;;;4.95;2.80;;;;;;;;;;6272326;22;20402;-94
2023/11/18 04:11:23;;;;;;;6.32;3.30;;;;;;;;;;6272612;22;20004;-96
2023/11/18 04:13:49;;;;;;;4.43;2.75;;;;;;;;;;6273433;22;20008;-95
2023/11/18 04:16:16;;;;;;;4.07;2.83;;;;;;;;;;6273472;22;20012;-94
2023/11/18 04:18:46;;;;;;;4.30;2.63;;;;;;;;;;6273731;22;20031;-95
2023/11/18 04:21:12;;;;;;;5.20;2.78;;;;;;;;;;6272400;22;20066;-94
2023/11/18 04:23:42;;;;;;;5.25;2.65;;;;;;;;;;6272942;22;20468;-96
2023/11/18 04:26:09;;;;;;;4.65;2.70;;;;;;;;;;6273979;22;20000;-92
2023/11/18 04:28:35;;;;;;;5.95;2.65;;;;;;;;;;6272314;22;20016;-95
2023/11/18 04:31:02;;;;;;;3.78;2.30;;;;;;;;;;6271986;22;20034;-91
2023/11/18 04:33:33;;;;;;;4.72;2.70;;;;;;;;;;6272834;22;20019;-94
2023/11/18 04:35:59;;;;;;;3.60;2.33;;;;;;;;;;6274477;22;20012;-95
2023/11/18 04:38:26;;;;;;;4.45;2.30;;;;;;;;;;6272663;22;20012;-91
2023/11/18 04:40:55;;;;;;;3.92;2.40;;;;;;;;;;6273759;22;20004;-95
2023/11/18 04:43:23;;;;;;;4.30;2.38;;;;;;;;;;6273149;22;20134;-95
2023/11/18 04:45:49;;;;;;;6.45;2.58;;;;;;;;;;6273271;22;20006;-95
2023/11/18 04:48:16;;;;;;;5.20;2.53;;;;;;;;;;6279039;22;20016;-95
2023/11/18 04:50:42;;;;;;;5.90;2.10;;;;;;;;;;6278457;22;19995;-94
2023/11/18 04:53:12;;;;;;;3.22;1.90;;;;;;;;;;6270716;22;20003;-95
2023/11/18 04:55:38;;;;;;;3.30;2.20;;;;;;;;;;6251730;22;20006;-95
2023/11/18 04:58:05;;;;;;;4.18;2.60;;;;;;;;;;6251919;22;20004;-95
2023/11/18 05:00:35;;;;;;;3.70;2.60;;;;;;;;;;6251532;22;20092;-96
2023/11/18 05:03:03;;;;;;;3.92;2.20;;;;;;;;;;6249966;22;20494;-94
2023/11/18 05:05:29;;;;;;;3.25;1.92;;;;;;;;;;6251340;22;20079;-94
2023/11/18 05:07:56;;;;;;;3.55;2.10;;;;;;;;;;6251685;22;20008;-94
2023/11/18 05:10:22;;;;;;;3.15;1.80;;;;;;;;;;6251413;22;20029;-95
2023/11/18 05:12:55;;;;;;;3.50;2.30;;;;;;;;;;6251364;22;20058;-94
2023/11/18 05:15:25;;;;;;;3.53;2.05;;;;;;;;;;6251989;22;20010;-94
2023/11/18 05:17:54;;;;;;;4.45;2.15;;;;;;;;;;6252223;22;20007;-94
2023/11/18 05:20:21;;;;;;;3.78;2.03;;;;;;;;;;6252563;22;20019;-94
2023/11/18 05:22:48;;;;;;;3.97;2.08;;;;;;;;;;6252649;22;20035;-95
2023/11/18 05:25:14;;;;;;;3.33;2.15;;;;;;;;;;6253529;22;20004;-94
2023/11/18 05:27:41;;;;;;;4.40;2.08;;;;;;;;;;6253914;22;20023;-95
2023/11/18 05:30:11;;;;;;;2.90;1.85;;;;;;;;;;6253357;22;20090;-94
2023/11/18 05:32:37;;;;;;;3.92;2.17;;;;;;;;;;6253250;22;20023;-95
2023/11/18 05:35:04;;;;;;;4.75;2.38;;;;;;;;;;6253754;22;20349;-95
2023/11/18 05:37:35;;;;;;;5.35;2.20;;;;;;;;;;6253473;22;19999;-95
2023/11/18 05:40:06;;;;;;;3.47;2.25;;;;;;;;;;6254021;22;20087;-94
2023/11/18 05:42:36;;;;;;;3.60;2.20;;;;;;;;;;6253557;22;20046;-95
2023/11/18 05:45:02;;;;;;;4.18;2.80;;;;;;;;;;6253548;22;20083;-95
2023/11/18 05:47:30;;;;;;;3.67;2.42;;;;;;;;;;6253499;22;20023;-96
2023/11/18 05:49:56;;;;;;;5.75;2.65;;;;;;;;;;6248369;23;20031;-96
2023/11/18 05:52:23;;;;;;;3.75;2.30;;;;;;;;;;6273948;22;20066;-96
2023/11/18 05:54:49;;;;;;;4.18;2.40;;;;;;;;;;6274562;22;20422;-96
2023/11/18 05:57:19;;;;;;;4.20;2.55;;;;;;;;;;6274012;22;20000;-95
2023/11/18 05:59:48;;;;;;;3.92;2.50;;;;;;;;;;6274493;22;20440;-95
2023/11/18 06:02:18;;;;;;;2.92;2.03;;;;;;;;;;6249601;22;20433;-95
2023/11/18 06:04:47;;;;;;;4.03;2.83;;;;;;;;;;6273942;22;20008;-95
2023/11/18 06:07:13;;;;;;;4.30;2.72;;;;;;;;;;6273445;22;20000;-95
2023/11/18 06:09:43;;;;;;;4.20;2.63;;;;;;;;;;6273918;22;20099;-94
2023/11/18 06:12:10;;;;;;;4.70;2.85;;;;;;;;;;6273645;22;20062;-95
2023/11/18 06:14:37;;;;;;;4.55;3.00;;;;;;;;;;6273813;22;20061;-95
2023/11/18 06:17:03;;;;;;;4.28;2.88;;;;;;;;;;6274079;22;20032;-94
2023/11/18 06:19:29;;;;;;;4.72;2.70;;;;;;;;;;6283524;22;20004;-92
2023/11/18 06:21:55;;;;;;;4.60;2.50;;;;;;;;;;6289498;22;20008;-93
2023/11/18 06:24:22;;;;;;;4.57;2.95;;;;;;;;;;6277625;22;20004;-95
2023/11/18 06:26:49;;;;;;;4.30;2.97;;;;;;;;;;6274571;22;20008;-96
2023/11/18 06:29:15;;;;;;;4.82;2.65;;;;;;;;;;6274054;22;20338;-94
2023/11/18 06:31:45;;;;;;;4.10;2.50;;;;;;;;;;6288567;22;19993;-93
2023/11/18 06:34:12;;;;;;;4.32;2.70;;;;;;;;;;6298182;22;20004;-93
2023/11/18 06:36:38;;;;;;;3.90;2.45;;;;;;;;;;6279897;22;20019;-95
2023/11/18 06:39:08;;;;;;;5.03;2.42;;;;;;;;;;6274121;22;20004;-94
2023/11/18 06:41:34;;;;;;;3.58;2.47;;;;;;;;;;6273621;22;20000;-96
2023/11/18 06:44:08;;;;;;;4.50;2.75;;;;;;;;;;6272396;22;20008;-92
2023/11/18 06:46:39;;;;;;;3.53;2.60;;;;;;;;;;6272533;22;20004;-95
2023/11/18 06:49:10;;;;;;;3.70;2.72;;;;;;;;;;6272524;22;20024;-95
2023/11/18 06:51:37;;;;;;;4.07;2.40;;;;;;;;;;6273080;22;20416;-96
2023/11/18 06:54:33;;;;;;;3.35;2.25;;;;;;;;;;6273230;22;20079;-95
2023/11/18 06:56:59;;;;;;;4.35;2.20;;;;;;;;;;6273662;22;20035;-94
2023/11/18 06:59:26;;;;;;;2.70;1.88;;;;;;;;;;6273101;22;20010;-96
2023/11/18 07:01:52;;;;;;;3.72;1.90;;;;;;;;;;6247870;22;20014;-95
2023/11/18 07:04:19;;;;;;;2.72;2.35;;;;;;;;;;6273009;22;20004;-95
2023/11/18 07:06:45;;;;;;;3.70;2.72;;;;;;;;;;6273365;22;20329;-96
2023/11/18 07:09:39;;;;;;;5.05;3.88;;;;;;;;;;6278534;22;20381;-96
2023/11/18 07:12:44;;;;;;;3.92;3.63;;;;;;;;;;6104592;23;20069;-96
2023/11/18 07:24:35;;;;;;;3.38;3.05;;;;;;;;;;6075190;23;20033;-95
2023/11/18 07:27:03;;;;;;;3.78;3.35;;;;;;;;;;6073069;23;20014;-94
2023/11/18 07:29:32;;;;;;;3.15;2.80;;;;;;;;;;6123317;23;20055;-95
2023/11/18 07:35:09;;;;;;;3.00;2.75;;;;;;;;;;6191242;23;20016;-96
2023/11/18 07:37:50;;;;;;;3.92;3.08;;;;;;;;;;6190412;23;20112;-96
2023/11/18 07:40:33;;;;;;;5.57;3.55;;;;;;;;;;6166974;23;20005;-96
2023/11/18 07:43:02;;;;;;;4.38;3.28;;;;;;;;;;6167084;23;20008;-95
2023/11/18 07:45:37;;;;;;;3.42;2.90;;;;;;;;;;6188507;23;20008;-94
2023/11/18 07:48:06;;;;;;;9.95;5.38;;;;;;;;;;6189788;23;20016;-95
2023/11/18 07:50:37;;;;;;;4.70;3.00;;;;;;;;;;6236396;23;20067;-96
2023/11/18 07:53:06;;;;;;;3.72;2.92;;;;;;;;;;6272404;22;20008;-94
2023/11/18 07:55:39;;;;;;;7.55;5.20;;;;;;;;;;6247747;22;20072;-95
2023/11/18 07:58:10;;;;;;;3.58;2.92;;;;;;;;;;6272049;22;20358;-95
2023/11/18 08:00:38;;;;;;;3.38;2.67;;;;;;;;;;6272354;22;20008;-92
2023/11/18 08:03:07;;;;;;;7.00;3.45;;;;;;;;;;6276617;22;20004;-93
2023/11/18 08:05:33;;;;;;;3.67;2.95;;;;;;;;;;6274398;22;20014;-92
2023/11/18 08:08:08;;;;;;;5.07;3.55;;;;;;;;;;6276026;22;20445;-93
2023/11/18 08:10:38;;;;;;;4.85;3.60;;;;;;;;;;6275084;22;20012;-92
2023/11/18 08:15:47;;;;;;;4.30;3.13;;;;;;;;;;6207058;23;20056;-93
2023/11/18 08:18:17;;;;;;;11.10;5.82;;;;;;;;;;6186344;22;19997;-96
2023/11/18 08:28:59;;;;;;;3.95;3.30;;;;;;;;;;6261437;22;20028;-96
2023/11/18 08:31:29;;;;;;;6.10;4.22;;;;;;;;;;6261190;22;20010;-95
2023/11/18 08:34:19;;;;;;;;;;;;;;;;;;;;;
2023/11/18 08:36:48;;;;;;;3.70;3.13;;;;;;;;;;6284771;22;20055;-96
2023/11/18 08:39:42;;;;;;;4.90;3.40;;;;;;;;;;6257377;22;20003;-96
2023/11/18 08:42:31;;;;;;;6.30;4.30;;;;;;;;;;6256175;22;20000;-93
2023/11/18 08:51:00;;;;;;;3.30;3.00;;;;;;;;;;6249298;22;20429;-96
2023/11/18 09:20:17;;;;;;;5.32;4.43;;;;;;;;;;6197926;23;20056;-93
2023/11/18 09:23:14;;;;;;;7.50;4.95;;;;;;;;;;6167215;23;20013;-96
2023/11/18 09:25:41;;;;;;;4.32;3.50;;;;;;;;;;6168016;23;20008;-95
2023/11/18 09:28:10;;;;;;;6.47;4.57;;;;;;;;;;6167509;23;20035;-92
2023/11/18 09:30:49;;;;;;;5.78;4.47;;;;;;;;;;6164969;23;20027;-93
2023/11/18 09:33:25;;;;;;;6.28;4.97;;;;;;;;;;6186364;23;20032;-92
2023/11/18 09:36:01;;;;;;;3.80;3.40;;;;;;;;;;6191011;23;20090;-92
2023/11/18 09:38:28;;;;;;;5.88;4.63;;;;;;;;;;6161444;23;20088;-94
2023/11/18 09:41:02;;;;;;;6.07;4.75;;;;;;;;;;6191757;23;20009;-93
2023/11/18 09:43:42;;;;;;;3.40;2.92;;;;;;;;;;6166691;23;20032;-95
2023/11/18 09:46:12;;;;;;;5.65;4.20;;;;;;;;;;6169456;23;20100;-96
2023/11/18 09:48:42;;;;;;;2.80;2.55;;;;;;;;;;6169679;23;20044;-96
2023/11/18 09:51:09;;;;;;;3.50;2.72;;;;;;;;;;6168456;23;20099;-94
2023/11/18 09:53:40;;;;;;;4.95;4.35;;;;;;;;;;6169449;23;20009;-93
2023/11/18 09:56:18;;;;;;;5.05;3.70;;;;;;;;;;6181106;23;20060;-92
2023/11/18 10:02:19;;;;;;;4.63;3.75;;;;;;;;;;6102107;23;20055;-91
2023/11/18 10:04:46;;;;;;;4.38;3.50;;;;;;;;;;6093944;23;20005;-93
2023/11/18 10:07:22;;;;;;;3.17;2.88;;;;;;;;;;6168749;23;20087;-92
2023/11/18 10:09:57;;;;;;;3.67;3.33;;;;;;;;;;6190283;23;20013;-91
2023/11/18 10:12:40;;;;;;;4.38;3.97;;;;;;;;;;6168145;23;20036;-96
2023/11/18 10:15:12;;;;;;;4.30;4.00;;;;;;;;;;6171111;23;20061;-96
2023/11/18 10:18:06;;;;;;;4.18;3.80;;;;;;;;;;6191345;23;20001;-91
2023/11/18 10:20:50;;;;;;;3.58;3.28;;;;;;;;;;6189449;23;20024;-94
2023/11/18 10:23:33;;;;;;;;;;;;;;;;;;;;;
2023/11/18 10:26:23;;;;;;;4.73;4.33;;;;;;;;;;6171872;23;20032;-93
2023/11/18 10:28:53;;;;;;;3.78;3.47;;;;;;;;;;6192236;23;20040;-96
2023/11/18 10:31:24;;;;;;;4.43;4.03;;;;;;;;;;6168886;23;20031;-96
2023/11/18 10:33:54;;;;;;;4.28;3.20;;;;;;;;;;6195541;23;20032;-93
2023/11/18 10:36:36;;;;;;;4.32;3.92;;;;;;;;;;6169414;23;20029;-93
2023/11/18 10:39:13;;;;;;;3.47;2.60;;;;;;;;;;6166980;23;20004;-95
2023/11/18 10:41:49;;;;;;;3.13;2.28;;;;;;;;;;6171907;23;20001;-93
2023/11/18 10:44:16;;;;;;;3.53;2.83;;;;;;;;;;6196429;23;20006;-95
2023/11/18 10:47:07;;;;;;;3.55;2.85;;;;;;;;;;6168498;23;20075;-94
2023/11/18 10:50:01;;;;;;;3.45;3.13;;;;;;;;;;6189330;23;20067;-92
2023/11/18 10:52:39;;;;;;;4.80;3.35;;;;;;;;;;6170078;23;20065;-94
2023/11/18 10:55:11;;;;;;;4.68;4.28;;;;;;;;;;6196926;23;20032;-94
2023/11/18 11:00:33;;;;;;;4.03;3.08;;;;;;;;;;6178090;23;20442;-93
2023/11/18 11:03:00;;;;;;;3.28;2.85;;;;;;;;;;6167403;23;20008;-94
2023/11/18 11:05:37;;;;;;;3.85;3.42;;;;;;;;;;6167172;23;20009;-94
2023/11/18 11:08:12;;;;;;;3.20;2.67;;;;;;;;;;6197453;23;20029;-94
2023/11/18 11:10:45;;;;;;;4.80;2.65;;;;;;;;;;6199187;23;20016;-95
2023/11/18 11:13:41;;;;;;;3.15;2.72;;;;;;;;;;6196494;23;20016;-94
2023/11/18 11:16:10;;;;;;;3.47;2.88;;;;;;;;;;6156053;23;20019;-96
2023/11/18 11:18:45;;;;;;;2.60;2.00;;;;;;;;;;6166944;23;20036;-93
2023/11/18 11:21:53;;;;;;;;;;;;;;;;;;;;;
2023/11/18 11:24:45;;;;;;;2.72;2.47;;;;;;;;;;6158166;23;20028;-94
2023/11/18 11:27:28;;;;;;;3.38;2.20;;;;;;;;;;6122694;23;20006;-93
2023/11/18 11:30:10;;;;;;;3.42;2.92;;;;;;;;;;6134921;23;20018;-94
2023/11/18 11:32:44;;;;;;;4.38;3.63;;;;;;;;;;6133102;23;20075;-93
2023/11/18 11:35:44;;;;;;;;;;;;;;;;;;;;;
2023/11/18 11:41:07;;;;;;;;;;;;;;;;;;;;;
2023/11/18 11:46:42;;;;;;;3.88;2.85;;;;;;;;;;6280278;22;20033;-96
2023/11/18 11:49:20;;;;;;;3.63;2.42;;;;;;;;;;6253576;22;20047;-95
2023/11/18 11:52:06;;;;;;;3.90;2.35;;;;;;;;;;6253563;22;20452;-94
2023/11/18 11:54:53;;;;;;;2.45;1.73;;;;;;;;;;6279355;22;20007;-95
2023/11/18 11:57:22;;;;;;;3.25;2.65;;;;;;;;;;6253530;22;20008;-93
2023/11/18 12:00:18;;;;;;;2.72;1.95;;;;;;;;;;6263415;22;20053;-95
2023/11/18 12:02:54;;;;;;;4.75;1.80;;;;;;;;;;6257248;22;20098;-92
2023/11/18 12:05:27;;;;;;;3.53;2.85;;;;;;;;;;6255149;22;20039;-94
2023/11/18 12:07:58;;;;;;;3.10;2.28;;;;;;;;;;6255667;22;20020;-92
2023/11/18 12:10:30;;;;;;;5.00;2.90;;;;;;;;;;6253083;22;20004;-92
2023/11/18 12:13:19;;;;;;;3.40;2.80;;;;;;;;;;6253442;22;19999;-93
2023/11/18 12:15:57;;;;;;;6.35;4.00;;;;;;;;;;6254829;22;20008;-92
2023/11/18 12:18:26;;;;;;;5.03;3.67;;;;;;;;;;6251690;22;20310;-94
2023/11/18 12:21:01;;;;;;;4.05;2.83;;;;;;;;;;6253265;22;20011;-92
2023/11/18 12:23:31;;;;;;;3.42;2.60;;;;;;;;;;6253413;22;20010;-94
2023/11/18 12:25:58;;;;;;;3.08;2.75;;;;;;;;;;6247986;22;20000;-91
2023/11/18 12:28:45;;;;;;;4.05;3.25;;;;;;;;;;6251354;22;20012;-91
2023/11/18 12:31:17;;;;;;;3.88;2.65;;;;;;;;;;6254322;22;20484;-93
2023/11/18 12:36:55;;;;;;;2.90;2.20;;;;;;;;;;6286160;22;20018;-93
2023/11/18 12:39:40;;;;;;;3.85;2.80;;;;;;;;;;6248197;22;20012;-94
2023/11/18 12:45:29;;;;;;;3.80;2.30;;;;;;;;;;6288617;22;20077;-93
2023/11/18 12:50:52;;;;;;;7.25;4.07;;;;;;;;;;6265743;22;20066;-92
2023/11/18 12:53:24;;;;;;;5.32;3.40;;;;;;;;;;6244035;22;20027;-91
2023/11/18 12:58:43;;;;;;;3.75;2.58;;;;;;;;;;6237749;22;20039;-91
2023/11/18 13:04:14;;;;;;;5.25;2.35;;;;;;;;;;6284349;22;20022;-93
2023/11/18 13:06:44;;;;;;;3.15;2.17;;;;;;;;;;6254198;22;20008;-92
2023/11/18 13:36:12;;;;;;;4.60;2.75;;;;;;;;;;6255055;22;20106;-96
2023/11/18 13:38:57;;;;;;;5.00;2.78;;;;;;;;;;6254569;22;20082;-94
2023/11/18 13:41:32;;;;;;;4.00;2.67;;;;;;;;;;6255694;22;20337;-93
2023/11/18 13:44:42;;;;;;;4.47;2.70;;;;;;;;;;6282077;22;20035;-92
2023/11/18 13:47:16;;;;;;;4.80;2.67;;;;;;;;;;6255254;22;20079;-93
2023/11/18 13:49:43;;;;;;;4.55;2.50;;;;;;;;;;6255648;22;20460;-94
2023/11/18 14:01:49;;;;;;;9.20;3.65;;;;;;;;;;6137207;23;20006;-90
2023/11/18 14:04:24;;;;;;;5.10;3.15;;;;;;;;;;6110976;23;20002;-93
2023/11/18 14:19:19;;;;;;;3.28;2.20;;;;;;;;;;6137125;23;20017;-91
2023/11/18 14:21:45;;;;;;;4.85;2.67;;;;;;;;;;6113111;23;20042;-91
2023/11/18 14:24:11;;;;;;;4.10;2.50;;;;;;;;;;6103601;23;20033;-92
2023/11/18 14:26:40;;;;;;;3.80;2.88;;;;;;;;;;6148941;23;20012;-92
2023/11/18 14:32:10;;;;;;;4.03;2.40;;;;;;;;;;6262579;22;20101;-92
2023/11/18 14:34:36;;;;;;;3.97;2.30;;;;;;;;;;6251540;22;20006;-91
2023/11/18 14:37:06;;;;;;;4.57;2.38;;;;;;;;;;6222036;23;20008;-93
2023/11/18 14:40:15;;;;;;;5.78;2.55;;;;;;;;;;6221998;23;20389;-94
2023/11/18 14:42:46;;;;;;;3.90;2.53;;;;;;;;;;6248658;23;20431;-94
2023/11/18 14:45:16;;;;;;;3.45;2.40;;;;;;;;;;6223590;23;20413;-91
2023/11/18 14:47:47;;;;;;;4.95;2.90;;;;;;;;;;6222564;23;20008;-91
2023/11/18 14:50:19;;;;;;;5.20;2.40;;;;;;;;;;6222812;23;20012;-92
2023/11/18 14:52:46;;;;;;;4.10;2.60;;;;;;;;;;6224495;23;20008;-92
2023/11/18 14:55:18;;;;;;;5.57;2.92;;;;;;;;;;6222227;23;20970;-92
2023/11/18 14:58:04;;;;;;;4.35;2.63;;;;;;;;;;6250650;23;20046;-93
2023/11/18 15:00:32;;;;;;;4.13;2.80;;;;;;;;;;6249596;23;20004;-91
2023/11/18 15:02:59;;;;;;;6.28;2.92;;;;;;;;;;6229889;23;19988;-89
2023/11/18 15:06:11;;;;;;;;;;;;;;;;;;;;;
2023/11/18 15:08:40;;;;;;;8.57;3.75;;;;;;;;;;6183745;23;20031;-89
2023/11/18 15:11:07;;;;;;;6.15;3.33;;;;;;;;;;6225284;23;20027;-91
2023/11/18 15:13:37;;;;;;;5.15;2.80;;;;;;;;;;6225241;23;20004;-92
2023/11/18 15:16:18;;;;;;;7.22;3.45;;;;;;;;;;6251937;23;20433;-93
2023/11/18 15:18:49;;;;;;;10.38;5.25;;;;;;;;;;6222642;23;20102;-89
2023/11/18 15:21:18;;;;;;;5.53;3.60;;;;;;;;;;6224539;23;20031;-93
2023/11/18 15:23:44;;;;;;;7.50;3.50;;;;;;;;;;6224228;23;20430;-88
2023/11/18 15:26:10;;;;;;;4.03;2.78;;;;;;;;;;6225260;23;20008;-91
2023/11/18 15:28:49;;;;;;;;;;;;;;;;;;;;;
2023/11/18 15:31:16;;;;;;;5.70;3.08;;;;;;;;;;6251485;23;20468;-89
2023/11/18 15:37:03;;;;;;;4.65;2.70;;;;;;;;;;6203299;23;20083;-90
2023/11/18 15:39:52;;;;;;;10.18;4.97;;;;;;;;;;6224324;23;20024;-93
2023/11/18 15:42:25;;;;;;;4.82;2.47;;;;;;;;;;6246617;23;20001;-93
2023/11/18 15:44:54;;;;;;;4.22;2.80;;;;;;;;;;6217416;23;20004;-92
2023/11/18 15:47:21;;;;;;;4.65;2.67;;;;;;;;;;6216578;23;20009;-90
2023/11/18 15:49:50;;;;;;;5.32;3.25;;;;;;;;;;6215663;23;20044;-90
2023/11/18 15:52:24;;;;;;;5.55;3.88;;;;;;;;;;6216701;23;20004;-91
2023/11/18 15:54:50;;;;;;;;;;;;;;;;;;6217875;23;20005;-93
2023/11/18 15:57:16;;;;;;;5.10;2.60;;;;;;;;;;6217767;23;19911;-92
2023/11/18 15:59:43;;;;;;;3.58;2.10;;;;;;;;;;6243500;23;20367;-90
2023/11/18 16:02:19;;;;;;;5.65;2.58;;;;;;;;;;6217694;23;20035;-89
2023/11/18 16:04:45;;;;;;;4.18;2.75;;;;;;;;;;6220399;23;20362;-90
2023/11/18 16:07:11;;;;;;;8.65;3.05;;;;;;;;;;6216857;23;20127;-89
2023/11/18 16:09:38;;;;;;;7.75;3.10;;;;;;;;;;6216747;23;20043;-90
2023/11/18 16:12:28;;;;;;;6.85;3.35;;;;;;;;;;6217023;23;20005;-89
2023/11/18 16:15:00;;;;;;;4.38;2.60;;;;;;;;;;6216867;23;20087;-91
2023/11/18 16:17:29;;;;;;;6.65;3.28;;;;;;;;;;6216665;23;20005;-93
2023/11/18 16:20:04;;;;;;;7.63;2.95;;;;;;;;;;6217214;23;20005;-95
2023/11/18 16:22:32;;;;;;;4.57;2.92;;;;;;;;;;6216189;23;20000;-90
2023/11/18 16:24:58;;;;;;;4.53;2.90;;;;;;;;;;6216061;23;20099;-92
2023/11/18 16:27:25;;;;;;;5.30;2.90;;;;;;;;;;6215973;23;20085;-91
2023/11/18 16:30:29;;;;;;;5.05;2.67;;;;;;;;;;6186386;23;20017;-95
2023/11/18 16:32:56;;;;;;;7.45;3.50;;;;;;;;;;6186389;23;20005;-92
2023/11/18 16:35:28;;;;;;;4.97;3.55;;;;;;;;;;6191508;23;20016;-94
2023/11/18 16:37:59;;;;;;;6.68;3.58;;;;;;;;;;6220310;23;20008;-93
2023/11/18 16:40:45;;;;;;;6.38;3.88;;;;;;;;;;6216118;23;20035;-94
2023/11/18 16:43:11;;;;;;;6.05;3.70;;;;;;;;;;6176310;23;20007;-94
2023/11/18 16:45:40;;;;;;;9.10;4.20;;;;;;;;;;6238518;22;20019;-92
2023/11/18 16:48:23;;;;;;;9.00;4.03;;;;;;;;;;6284240;22;20087;-92
2023/11/18 16:50:53;;;;;;;13.20;6.70;;;;;;;;;;6289568;22;20010;-91
2023/11/18 16:53:19;;;;;;;19.02;7.22;;;;;;;;;;6306494;22;20054;-93
2023/11/18 16:58:44;;;;;;;8.43;3.95;;;;;;;;;;6309463;22;20086;-94
2023/11/18 17:01:12;;;;;;;9.68;4.60;;;;;;;;;;6290605;22;20003;-93
2023/11/18 17:03:41;;;;;;;11.07;5.65;;;;;;;;;;6285906;22;20030;-92
2023/11/18 17:06:15;;;;;;;5.53;3.28;;;;;;;;;;6282344;22;20011;-94
2023/11/18 17:08:44;;;;;;;5.80;3.70;;;;;;;;;;6282110;22;20496;-92
2023/11/18 17:11:27;;;;;;;5.13;3.03;;;;;;;;;;6280996;22;20011;-95
2023/11/18 17:13:53;;;;;;;6.10;3.22;;;;;;;;;;6281704;22;20010;-93
2023/11/18 17:16:27;;;;;;;8.27;4.60;;;;;;;;;;6281414;22;20003;-92
2023/11/18 17:18:54;;;;;;;150.88;31.15;;;;;;;;;;6281381;22;20365;-92
2023/11/18 17:21:26;;;;;;;37.10;10.85;;;;;;;;;;6285067;22;19999;-92
2023/11/18 17:23:53;;;;;;;36.40;11.60;;;;;;;;;;6259151;22;20420;-92
2023/11/18 17:26:19;;;;;;;24.63;9.35;;;;;;;;;;6285866;22;20011;-93
2023/11/18 17:29:01;;;;;;;15.70;7.28;;;;;;;;;;6286598;22;20069;-94
2023/11/18 17:31:31;;;;;;;;;;;;;;;;;;6313958;22;20003;-94
2023/11/18 17:37:45;;;;;;;10.85;4.35;;;;;;;;;;6252882;22;20020;-94
2023/11/18 17:40:24;;;;;;;5.78;2.95;;;;;;;;;;6232045;22;20043;-96